sensor_id;sensor_type;location;lat;lon;timestamp;pressure;altitude;pressure_sealevel;temperature;humidity
21574;BME280;10948;48.706;9.258;2023-06-22T00:01:05;97778.91;;;21.68;100.00
21574;BME280;10948;48.706;9.258;2023-06-22T00:03:31;97768.88;;;21.54;100.00
21574;BME280;10948;48.706;9.258;2023-06-22T00:05:56;97774.88;;;21.22;100.00
21574;BME280;10948;48.706;9.258;2023-06-22T00:08:21;97769.34;;;21.41;100.00
21574;BME280;10948;48.706;9.258;2023-06-22T00:10:47;97767.72;;;21.48;100.00
21574;BME280;10948;48.706;9.258;2023-06-22T00:13:12;97783.19;;;21.27;100.00
21574;BME280;10948;48.706;9.258;2023-06-22T00:15:38;97767.94;;;21.29;100.00
21574;BME280;10948;48.706;9.258;2023-06-22T00:18:04;97763.75;;;21.19;100.00
21574;BME280;10948;48.706;9.258;2023-06-22T00:20:30;97767.03;;;21.13;100.00
21574;BME280;10948;48.706;9.258;2023-06-22T00:22:55;97772.69;;;21.18;100.00
21574;BME280;10948;48.706;9.258;2023-06-22T00:25:21;97781.63;;;21.17;100.00
21574;BME280;10948;48.706;9.258;2023-06-22T00:27:46;97784.78;;;21.20;100.00
21574;BME280;10948;48.706;9.258;2023-06-22T00:30:12;97783.06;;;21.11;100.00
21574;BME280;10948;48.706;9.258;2023-06-22T00:32:37;97785.75;;;21.19;100.00
21574;BME280;10948;48.706;9.258;2023-06-22T00:35:02;97771.66;;;21.11;100.00
21574;BME280;10948;48.706;9.258;2023-06-22T00:37:28;97774.59;;;21.33;100.00
21574;BME280;10948;48.706;9.258;2023-06-22T00:39:54;97775.88;;;20.78;100.00
21574;BME280;10948;48.706;9.258;2023-06-22T00:42:20;97769.75;;;20.78;100.00
21574;BME280;10948;48.706;9.258;2023-06-22T00:44:45;97763.00;;;20.83;100.00
21574;BME280;10948;48.706;9.258;2023-06-22T00:47:13;97759.53;;;21.00;100.00
21574;BME280;10948;48.706;9.258;2023-06-22T00:49:41;97757.53;;;21.02;100.00
21574;BME280;10948;48.706;9.258;2023-06-22T00:52:06;97767.94;;;21.29;100.00
21574;BME280;10948;48.706;9.258;2023-06-22T00:54:37;97772.19;;;21.14;100.00
21574;BME280;10948;48.706;9.258;2023-06-22T00:57:02;97762.50;;;21.05;100.00
21574;BME280;10948;48.706;9.258;2023-06-22T00:59:28;97778.25;;;21.07;100.00
21574;BME280;10948;48.706;9.258;2023-06-22T01:01:53;97785.47;;;21.22;100.00
21574;BME280;10948;48.706;9.258;2023-06-22T01:04:18;97775.56;;;20.81;100.00
21574;BME280;10948;48.706;9.258;2023-06-22T01:07:18;97791.50;;;20.46;100.00
21574;BME280;10948;48.706;9.258;2023-06-22T01:09:40;97802.84;;;20.99;100.00
21574;BME280;10948;48.706;9.258;2023-06-22T01:12:10;97803.38;;;20.85;100.00
21574;BME280;10948;48.706;9.258;2023-06-22T01:14:43;97802.91;;;20.47;100.00
21574;BME280;10948;48.706;9.258;2023-06-22T01:17:10;97810.97;;;20.80;100.00
21574;BME280;10948;48.706;9.258;2023-06-22T01:19:44;97827.72;;;20.71;100.00
21574;BME280;10948;48.706;9.258;2023-06-22T01:22:12;97815.56;;;20.61;100.00
21574;BME280;10948;48.706;9.258;2023-06-22T01:24:53;97786.09;;;20.73;100.00
21574;BME280;10948;48.706;9.258;2023-06-22T01:30:07;97805.75;;;20.88;100.00
21574;BME280;10948;48.706;9.258;2023-06-22T01:32:36;97796.91;;;21.05;100.00
21574;BME280;10948;48.706;9.258;2023-06-22T01:35:03;97777.75;;;20.86;100.00
21574;BME280;10948;48.706;9.258;2023-06-22T01:37:29;97778.50;;;20.78;100.00
21574;BME280;10948;48.706;9.258;2023-06-22T01:39:57;97774.38;;;20.93;100.00
21574;BME280;10948;48.706;9.258;2023-06-22T01:42:23;97774.97;;;21.13;100.00
21574;BME280;10948;48.706;9.258;2023-06-22T01:44:49;97782.03;;;21.30;100.00
21574;BME280;10948;48.706;9.258;2023-06-22T01:47:15;97773.44;;;21.02;100.00
21574;BME280;10948;48.706;9.258;2023-06-22T01:49:41;97766.31;;;20.85;100.00
21574;BME280;10948;48.706;9.258;2023-06-22T01:52:07;97766.16;;;21.04;100.00
21574;BME280;10948;48.706;9.258;2023-06-22T01:54:32;97775.06;;;21.29;100.00
21574;BME280;10948;48.706;9.258;2023-06-22T01:56:57;97783.69;;;21.05;100.00
21574;BME280;10948;48.706;9.258;2023-06-22T02:02:07;97772.00;;;21.16;100.00
21574;BME280;10948;48.706;9.258;2023-06-22T02:04:51;97781.97;;;20.96;100.00
21574;BME280;10948;48.706;9.258;2023-06-22T02:07:19;97777.97;;;20.92;100.00
21574;BME280;10948;48.706;9.258;2023-06-22T02:09:46;97782.75;;;20.89;100.00
21574;BME280;10948;48.706;9.258;2023-06-22T02:12:12;97793.88;;;20.75;100.00
21574;BME280;10948;48.706;9.258;2023-06-22T02:14:39;97791.06;;;20.94;100.00
21574;BME280;10948;48.706;9.258;2023-06-22T02:17:04;97791.91;;;20.94;100.00
21574;BME280;10948;48.706;9.258;2023-06-22T02:19:32;97791.59;;;20.97;100.00
21574;BME280;10948;48.706;9.258;2023-06-22T02:22:00;97799.63;;;20.88;100.00
21574;BME280;10948;48.706;9.258;2023-06-22T02:24:25;97796.31;;;20.68;100.00
21574;BME280;10948;48.706;9.258;2023-06-22T02:26:51;97794.50;;;20.51;100.00
21574;BME280;10948;48.706;9.258;2023-06-22T02:29:16;97785.97;;;20.57;100.00
21574;BME280;10948;48.706;9.258;2023-06-22T02:31:42;97792.78;;;20.42;100.00
21574;BME280;10948;48.706;9.258;2023-06-22T02:34:07;97789.81;;;20.45;100.00
21574;BME280;10948;48.706;9.258;2023-06-22T02:36:32;97786.34;;;20.62;100.00
21574;BME280;10948;48.706;9.258;2023-06-22T02:38:58;97777.41;;;20.63;100.00
21574;BME280;10948;48.706;9.258;2023-06-22T02:41:26;97774.72;;;20.55;100.00
21574;BME280;10948;48.706;9.258;2023-06-22T02:43:51;97778.34;;;20.54;100.00
21574;BME280;10948;48.706;9.258;2023-06-22T02:46:16;97778.25;;;20.64;100.00
21574;BME280;10948;48.706;9.258;2023-06-22T02:48:42;97768.91;;;20.77;100.00
21574;BME280;10948;48.706;9.258;2023-06-22T02:51:07;97763.44;;;20.71;100.00
21574;BME280;10948;48.706;9.258;2023-06-22T02:53:32;97757.53;;;20.77;100.00
21574;BME280;10948;48.706;9.258;2023-06-22T02:55:58;97747.84;;;20.68;100.00
21574;BME280;10948;48.706;9.258;2023-06-22T02:58:23;97752.63;;;20.64;100.00
21574;BME280;10948;48.706;9.258;2023-06-22T03:00:49;97749.31;;;20.62;100.00
21574;BME280;10948;48.706;9.258;2023-06-22T03:03:18;97747.66;;;20.61;100.00
21574;BME280;10948;48.706;9.258;2023-06-22T03:05:43;97745.13;;;20.34;100.00
21574;BME280;10948;48.706;9.258;2023-06-22T03:08:08;97742.22;;;20.45;100.00
21574;BME280;10948;48.706;9.258;2023-06-22T03:10:33;97745.56;;;20.47;100.00
21574;BME280;10948;48.706;9.258;2023-06-22T03:12:59;97742.78;;;20.31;100.00
21574;BME280;10948;48.706;9.258;2023-06-22T03:15:24;97747.69;;;20.09;100.00
21574;BME280;10948;48.706;9.258;2023-06-22T03:17:50;97745.41;;;19.96;100.00
21574;BME280;10948;48.706;9.258;2023-06-22T03:20:15;97747.28;;;19.59;100.00
21574;BME280;10948;48.706;9.258;2023-06-22T03:22:41;97735.50;;;19.81;100.00
21574;BME280;10948;48.706;9.258;2023-06-22T03:25:07;97745.06;;;19.99;100.00
21574;BME280;10948;48.706;9.258;2023-06-22T03:27:38;97750.38;;;19.99;100.00
21574;BME280;10948;48.706;9.258;2023-06-22T03:30:03;97748.00;;;20.23;100.00
21574;BME280;10948;48.706;9.258;2023-06-22T03:32:28;97758.53;;;19.88;100.00
21574;BME280;10948;48.706;9.258;2023-06-22T03:34:54;97747.38;;;19.94;100.00
21574;BME280;10948;48.706;9.258;2023-06-22T03:37:19;97747.19;;;19.78;100.00
21574;BME280;10948;48.706;9.258;2023-06-22T03:39:44;97746.38;;;19.78;100.00
21574;BME280;10948;48.706;9.258;2023-06-22T03:42:09;97745.22;;;20.07;100.00
21574;BME280;10948;48.706;9.258;2023-06-22T03:44:35;97754.50;;;19.84;100.00
21574;BME280;10948;48.706;9.258;2023-06-22T03:47:01;97753.53;;;19.85;100.00
21574;BME280;10948;48.706;9.258;2023-06-22T03:49:27;97746.91;;;19.81;100.00
21574;BME280;10948;48.706;9.258;2023-06-22T03:51:52;97751.00;;;19.93;100.00
21574;BME280;10948;48.706;9.258;2023-06-22T03:54:17;97745.22;;;20.07;100.00
21574;BME280;10948;48.706;9.258;2023-06-22T03:56:42;97746.19;;;20.24;100.00
21574;BME280;10948;48.706;9.258;2023-06-22T03:59:08;97748.91;;;20.14;100.00
21574;BME280;10948;48.706;9.258;2023-06-22T04:01:33;97749.09;;;20.03;100.00
21574;BME280;10948;48.706;9.258;2023-06-22T04:03:58;97750.38;;;19.99;100.00
21574;BME280;10948;48.706;9.258;2023-06-22T04:06:23;97752.53;;;20.13;100.00
21574;BME280;10948;48.706;9.258;2023-06-22T04:08:48;97736.56;;;20.23;100.00
21574;BME280;10948;48.706;9.258;2023-06-22T04:11:16;97735.97;;;20.29;100.00
21574;BME280;10948;48.706;9.258;2023-06-22T04:13:42;97744.56;;;20.48;100.00
21574;BME280;10948;48.706;9.258;2023-06-22T04:16:07;97731.56;;;20.55;100.00
21574;BME280;10948;48.706;9.258;2023-06-22T04:18:32;97724.75;;;20.70;100.00
21574;BME280;10948;48.706;9.258;2023-06-22T04:20:57;97720.09;;;20.89;100.00
21574;BME280;10948;48.706;9.258;2023-06-22T04:23:23;97721.75;;;20.90;100.00
21574;BME280;10948;48.706;9.258;2023-06-22T04:25:48;97718.78;;;20.93;100.00
21574;BME280;10948;48.706;9.258;2023-06-22T04:28:13;97709.06;;;21.02;100.00
21574;BME280;10948;48.706;9.258;2023-06-22T04:30:38;97711.44;;;21.13;100.00
21574;BME280;10948;48.706;9.258;2023-06-22T04:33:14;97710.28;;;21.15;100.00
21574;BME280;10948;48.706;9.258;2023-06-22T04:35:40;97704.38;;;21.21;100.00
21574;BME280;10948;48.706;9.258;2023-06-22T04:38:06;97708.69;;;21.30;100.00
21574;BME280;10948;48.706;9.258;2023-06-22T04:40:33;97706.47;;;21.51;100.00
21574;BME280;10948;48.706;9.258;2023-06-22T04:42:59;97706.31;;;21.61;100.00
21574;BME280;10948;48.706;9.258;2023-06-22T04:45:27;97701.63;;;21.80;100.00
21574;BME280;10948;48.706;9.258;2023-06-22T04:47:53;97697.13;;;21.81;100.00
21574;BME280;10948;48.706;9.258;2023-06-22T04:50:18;97686.72;;;22.03;100.00
21574;BME280;10948;48.706;9.258;2023-06-22T04:52:46;97689.06;;;22.14;100.00
21574;BME280;10948;48.706;9.258;2023-06-22T04:55:11;97677.47;;;22.39;100.00
21574;BME280;10948;48.706;9.258;2023-06-22T04:57:36;97684.75;;;22.61;100.00
21574;BME280;10948;48.706;9.258;2023-06-22T05:00:04;97687.34;;;22.77;100.00
21574;BME280;10948;48.706;9.258;2023-06-22T05:02:40;97689.31;;;22.99;100.00
21574;BME280;10948;48.706;9.258;2023-06-22T05:05:06;97687.63;;;23.06;100.00
21574;BME280;10948;48.706;9.258;2023-06-22T05:07:31;97688.28;;;23.16;100.00
21574;BME280;10948;48.706;9.258;2023-06-22T05:09:57;97677.59;;;23.32;100.00
21574;BME280;10948;48.706;9.258;2023-06-22T05:12:22;97677.72;;;23.69;100.00
21574;BME280;10948;48.706;9.258;2023-06-22T05:14:47;97680.44;;;23.92;100.00
21574;BME280;10948;48.706;9.258;2023-06-22T05:17:12;97679.84;;;24.04;100.00
21574;BME280;10948;48.706;9.258;2023-06-22T05:19:38;97669.66;;;24.30;100.00
21574;BME280;10948;48.706;9.258;2023-06-22T05:22:03;97674.28;;;23.91;100.00
21574;BME280;10948;48.706;9.258;2023-06-22T05:24:28;97673.66;;;23.81;100.00
21574;BME280;10948;48.706;9.258;2023-06-22T05:26:54;97667.44;;;23.97;100.00
21574;BME280;10948;48.706;9.258;2023-06-22T05:29:19;97657.47;;;24.35;99.99
21574;BME280;10948;48.706;9.258;2023-06-22T05:31:44;97658.84;;;24.68;98.61
21574;BME280;10948;48.706;9.258;2023-06-22T05:34:10;97660.97;;;24.87;93.32
21574;BME280;10948;48.706;9.258;2023-06-22T05:36:35;97653.44;;;25.20;91.65
21574;BME280;10948;48.706;9.258;2023-06-22T05:39:00;97659.50;;;25.64;89.06
21574;BME280;10948;48.706;9.258;2023-06-22T05:41:36;97659.84;;;26.11;85.59
21574;BME280;10948;48.706;9.258;2023-06-22T05:44:01;97663.16;;;25.92;84.92
21574;BME280;10948;48.706;9.258;2023-06-22T05:46:27;97660.31;;;26.42;83.14
21574;BME280;10948;48.706;9.258;2023-06-22T05:48:52;97664.09;;;26.75;80.67
21574;BME280;10948;48.706;9.258;2023-06-22T05:51:17;97658.31;;;26.71;78.41
21574;BME280;10948;48.706;9.258;2023-06-22T05:53:43;97664.44;;;27.27;74.26
21574;BME280;10948;48.706;9.258;2023-06-22T05:56:09;97663.56;;;28.53;70.01
21574;BME280;10948;48.706;9.258;2023-06-22T05:58:35;97666.78;;;29.20;66.36
21574;BME280;10948;48.706;9.258;2023-06-22T06:01:00;97673.91;;;30.02;62.92
21574;BME280;10948;48.706;9.258;2023-06-22T06:03:25;97665.44;;;29.61;62.12
21574;BME280;10948;48.706;9.258;2023-06-22T06:05:52;97659.53;;;30.21;60.89
21574;BME280;10948;48.706;9.258;2023-06-22T06:08:17;97661.69;;;31.11;57.62
21574;BME280;10948;48.706;9.258;2023-06-22T06:10:43;97661.66;;;29.69;59.42
21574;BME280;10948;48.706;9.258;2023-06-22T06:13:08;97650.28;;;29.23;62.50
21574;BME280;10948;48.706;9.258;2023-06-22T06:15:34;97655.59;;;29.42;62.56
21574;BME280;10948;48.706;9.258;2023-06-22T06:17:59;97648.88;;;28.03;66.24
21574;BME280;10948;48.706;9.258;2023-06-22T06:20:25;97653.97;;;26.43;72.07
21574;BME280;10948;48.706;9.258;2023-06-22T06:22:51;97661.13;;;26.15;74.17
21574;BME280;10948;48.706;9.258;2023-06-22T06:25:16;97659.56;;;26.48;73.80
21574;BME280;10948;48.706;9.258;2023-06-22T06:27:45;97659.59;;;27.09;71.67
21574;BME280;10948;48.706;9.258;2023-06-22T06:30:11;97658.63;;;27.17;70.29
21574;BME280;10948;48.706;9.258;2023-06-22T06:32:37;97661.38;;;27.30;71.15
21574;BME280;10948;48.706;9.258;2023-06-22T06:35:03;97651.56;;;27.50;69.97
21574;BME280;10948;48.706;9.258;2023-06-22T06:37:31;97650.53;;;27.44;68.36
21574;BME280;10948;48.706;9.258;2023-06-22T06:39:56;97653.06;;;27.59;68.94
21574;BME280;10948;48.706;9.258;2023-06-22T06:42:23;97644.78;;;28.33;67.00
21574;BME280;10948;48.706;9.258;2023-06-22T06:44:49;97661.25;;;28.17;65.58
21574;BME280;10948;48.706;9.258;2023-06-22T06:47:15;97659.97;;;27.94;65.22
21574;BME280;10948;48.706;9.258;2023-06-22T06:49:40;97660.91;;;27.67;66.73
21574;BME280;10948;48.706;9.258;2023-06-22T06:52:05;97651.19;;;28.26;63.59
21574;BME280;10948;48.706;9.258;2023-06-22T06:54:31;97666.63;;;27.51;66.02
21574;BME280;10948;48.706;9.258;2023-06-22T06:56:56;97656.13;;;28.35;65.53
21574;BME280;10948;48.706;9.258;2023-06-22T06:59:21;97652.78;;;29.11;62.85
21574;BME280;10948;48.706;9.258;2023-06-22T07:01:47;97659.25;;;29.48;61.35
21574;BME280;10948;48.706;9.258;2023-06-22T07:04:13;97657.59;;;29.60;59.43
21574;BME280;10948;48.706;9.258;2023-06-22T07:06:38;97655.75;;;29.98;59.06
21574;BME280;10948;48.706;9.258;2023-06-22T07:09:04;97654.31;;;29.58;59.04
21574;BME280;10948;48.706;9.258;2023-06-22T07:11:31;97649.13;;;30.31;58.71
21574;BME280;10948;48.706;9.258;2023-06-22T07:13:58;97657.56;;;31.26;56.38
21574;BME280;10948;48.706;9.258;2023-06-22T07:16:25;97656.47;;;31.34;56.27
21574;BME280;10948;48.706;9.258;2023-06-22T07:18:53;97646.72;;;30.97;55.59
21574;BME280;10948;48.706;9.258;2023-06-22T07:21:18;97647.97;;;31.84;54.89
21574;BME280;10948;48.706;9.258;2023-06-22T07:23:43;97645.09;;;31.50;52.63
21574;BME280;10948;48.706;9.258;2023-06-22T07:26:09;97634.44;;;31.90;51.92
21574;BME280;10948;48.706;9.258;2023-06-22T07:28:34;97628.41;;;33.05;49.79
21574;BME280;10948;48.706;9.258;2023-06-22T07:31:02;97630.88;;;34.41;46.26
21574;BME280;10948;48.706;9.258;2023-06-22T07:33:29;97622.06;;;34.46;44.45
21574;BME280;10948;48.706;9.258;2023-06-22T07:35:55;97615.66;;;36.40;42.54
21574;BME280;10948;48.706;9.258;2023-06-22T07:38:20;97623.78;;;36.40;41.91
21574;BME280;10948;48.706;9.258;2023-06-22T07:40:46;97612.44;;;36.43;42.15
21574;BME280;10948;48.706;9.258;2023-06-22T07:43:12;97614.78;;;37.49;40.42
21574;BME280;10948;48.706;9.258;2023-06-22T07:45:37;97602.38;;;37.12;41.02
21574;BME280;10948;48.706;9.258;2023-06-22T07:48:05;97596.53;;;36.25;42.17
21574;BME280;10948;48.706;9.258;2023-06-22T07:50:30;97596.47;;;36.83;41.75
21574;BME280;10948;48.706;9.258;2023-06-22T07:52:57;97581.09;;;37.04;40.57
21574;BME280;10948;48.706;9.258;2023-06-22T07:55:22;97587.34;;;37.56;41.04
21574;BME280;10948;48.706;9.258;2023-06-22T07:57:48;97587.16;;;37.77;40.69
21574;BME280;10948;48.706;9.258;2023-06-22T08:00:14;97580.91;;;37.87;39.63
21574;BME280;10948;48.706;9.258;2023-06-22T08:02:40;97591.56;;;39.77;37.84
21574;BME280;10948;48.706;9.258;2023-06-22T08:05:06;97581.50;;;39.04;38.15
21574;BME280;10948;48.706;9.258;2023-06-22T08:07:33;97581.84;;;38.62;38.78
21574;BME280;10948;48.706;9.258;2023-06-22T08:09:58;97590.00;;;38.87;38.62
21574;BME280;10948;48.706;9.258;2023-06-22T08:12:23;97585.09;;;38.64;39.35
21574;BME280;10948;48.706;9.258;2023-06-22T08:14:49;97595.19;;;38.59;38.52
21574;BME280;10948;48.706;9.258;2023-06-22T08:17:15;97600.22;;;40.37;37.16
21574;BME280;10948;48.706;9.258;2023-06-22T08:19:40;97598.22;;;33.98;46.33
21574;BME280;10948;48.706;9.258;2023-06-22T08:22:06;97612.13;;;36.71;44.28
21574;BME280;10948;48.706;9.258;2023-06-22T08:24:31;97615.56;;;33.86;48.50
21574;BME280;10948;48.706;9.258;2023-06-22T08:26:56;97617.91;;;36.48;45.03
21574;BME280;10948;48.706;9.258;2023-06-22T08:29:22;97634.75;;;41.42;37.76
21574;BME280;10948;48.706;9.258;2023-06-22T08:31:47;97635.50;;;42.31;35.53
21574;BME280;10948;48.706;9.258;2023-06-22T08:34:13;97646.00;;;42.61;34.90
21574;BME280;10948;48.706;9.258;2023-06-22T08:36:38;97642.69;;;42.27;35.46
21574;BME280;10948;48.706;9.258;2023-06-22T08:39:10;97660.97;;;43.60;34.45
21574;BME280;10948;48.706;9.258;2023-06-22T08:41:35;97662.16;;;43.40;34.35
21574;BME280;10948;48.706;9.258;2023-06-22T08:44:00;97662.53;;;39.67;39.53
21574;BME280;10948;48.706;9.258;2023-06-22T08:46:26;97650.41;;;38.44;39.40
21574;BME280;10948;48.706;9.258;2023-06-22T08:48:56;97641.50;;;35.30;44.76
21574;BME280;10948;48.706;9.258;2023-06-22T08:51:22;97643.09;;;33.99;49.14
21574;BME280;10948;48.706;9.258;2023-06-22T08:53:47;97640.97;;;34.01;48.30
21574;BME280;10948;48.706;9.258;2023-06-22T08:56:13;97635.84;;;34.77;47.21
21574;BME280;10948;48.706;9.258;2023-06-22T08:58:38;97641.44;;;35.25;48.46
21574;BME280;10948;48.706;9.258;2023-06-22T09:01:03;97621.81;;;33.24;49.90
21574;BME280;10948;48.706;9.258;2023-06-22T09:03:29;97622.59;;;36.94;46.17
21574;BME280;10948;48.706;9.258;2023-06-22T09:05:54;97626.97;;;38.33;42.23
21574;BME280;10948;48.706;9.258;2023-06-22T09:08:20;97635.75;;;42.48;35.14
21574;BME280;10948;48.706;9.258;2023-06-22T09:10:46;97645.66;;;44.79;32.29
21574;BME280;10948;48.706;9.258;2023-06-22T09:13:11;97630.03;;;43.95;33.94
21574;BME280;10948;48.706;9.258;2023-06-22T09:15:36;97619.25;;;39.40;40.15
21574;BME280;10948;48.706;9.258;2023-06-22T09:18:02;97612.56;;;38.98;40.37
21574;BME280;10948;48.706;9.258;2023-06-22T09:20:27;97619.38;;;38.45;40.33
21574;BME280;10948;48.706;9.258;2023-06-22T09:22:53;97620.41;;;39.19;39.89
21574;BME280;10948;48.706;9.258;2023-06-22T09:25:18;97626.47;;;38.56;41.15
21574;BME280;10948;48.706;9.258;2023-06-22T09:27:47;97620.09;;;37.24;42.76
21574;BME280;10948;48.706;9.258;2023-06-22T09:30:13;97619.06;;;37.35;42.52
21574;BME280;10948;48.706;9.258;2023-06-22T09:32:38;97612.69;;;37.71;42.35
21574;BME280;10948;48.706;9.258;2023-06-22T09:35:04;97602.50;;;38.28;40.51
21574;BME280;10948;48.706;9.258;2023-06-22T09:37:30;97603.03;;;38.15;41.78
21574;BME280;10948;48.706;9.258;2023-06-22T09:39:56;97611.91;;;36.78;43.13
21574;BME280;10948;48.706;9.258;2023-06-22T09:42:21;97605.09;;;35.21;45.55
21574;BME280;10948;48.706;9.258;2023-06-22T09:44:46;97603.78;;;37.96;42.79
21574;BME280;10948;48.706;9.258;2023-06-22T09:47:12;97588.34;;;38.66;41.47
21574;BME280;10948;48.706;9.258;2023-06-22T09:49:37;97581.06;;;37.50;42.04
21574;BME280;10948;48.706;9.258;2023-06-22T09:52:02;97580.09;;;36.73;44.07
21574;BME280;10948;48.706;9.258;2023-06-22T09:54:28;97572.25;;;37.18;42.61
21574;BME280;10948;48.706;9.258;2023-06-22T09:56:53;97578.19;;;37.10;42.05
21574;BME280;10948;48.706;9.258;2023-06-22T09:59:18;97589.91;;;37.92;41.82
21574;BME280;10948;48.706;9.258;2023-06-22T10:01:43;97585.63;;;38.31;41.78
21574;BME280;10948;48.706;9.258;2023-06-22T10:04:09;97574.72;;;37.25;43.50
21574;BME280;10948;48.706;9.258;2023-06-22T10:06:34;97568.31;;;36.58;43.19
21574;BME280;10948;48.706;9.258;2023-06-22T10:08:59;97567.94;;;34.62;46.52
21574;BME280;10948;48.706;9.258;2023-06-22T10:11:25;97559.78;;;34.24;48.06
21574;BME280;10948;48.706;9.258;2023-06-22T10:13:54;97550.25;;;34.55;47.34
21574;BME280;10948;48.706;9.258;2023-06-22T10:16:19;97554.13;;;33.81;48.38
21574;BME280;10948;48.706;9.258;2023-06-22T10:18:45;97537.78;;;34.04;48.36
21574;BME280;10948;48.706;9.258;2023-06-22T10:21:10;97539.19;;;34.94;46.33
21574;BME280;10948;48.706;9.258;2023-06-22T10:23:35;97539.22;;;35.37;46.41
21574;BME280;10948;48.706;9.258;2023-06-22T10:26:01;97534.63;;;35.91;46.32
21574;BME280;10948;48.706;9.258;2023-06-22T10:28:27;97527.63;;;35.95;45.57
21574;BME280;10948;48.706;9.258;2023-06-22T10:30:52;97523.78;;;34.40;48.25
21574;BME280;10948;48.706;9.258;2023-06-22T10:33:17;97524.50;;;34.52;48.05
21574;BME280;10948;48.706;9.258;2023-06-22T10:35:42;97525.88;;;35.09;46.64
21574;BME280;10948;48.706;9.258;2023-06-22T10:38:08;97517.97;;;36.35;45.61
21574;BME280;10948;48.706;9.258;2023-06-22T10:40:33;97521.38;;;35.89;45.74
21574;BME280;10948;48.706;9.258;2023-06-22T10:42:59;97521.31;;;34.93;46.76
21574;BME280;10948;48.706;9.258;2023-06-22T10:45:24;97508.28;;;35.81;46.24
21574;BME280;10948;48.706;9.258;2023-06-22T10:47:49;97501.72;;;36.40;45.21
21574;BME280;10948;48.706;9.258;2023-06-22T10:50:14;97505.59;;;35.33;46.26
21574;BME280;10948;48.706;9.258;2023-06-22T10:52:40;97499.97;;;34.37;49.07
21574;BME280;10948;48.706;9.258;2023-06-22T10:55:06;97505.09;;;34.55;48.82
21574;BME280;10948;48.706;9.258;2023-06-22T10:57:32;97510.38;;;35.26;47.00
21574;BME280;10948;48.706;9.258;2023-06-22T10:59:57;97503.06;;;35.05;47.64
21574;BME280;10948;48.706;9.258;2023-06-22T11:02:23;97506.50;;;34.41;49.60
21574;BME280;10948;48.706;9.258;2023-06-22T11:04:48;97497.91;;;34.44;48.91
21574;BME280;10948;48.706;9.258;2023-06-22T11:07:15;97496.56;;;34.63;49.08
21574;BME280;10948;48.706;9.258;2023-06-22T11:09:40;97503.59;;;35.02;47.95
21574;BME280;10948;48.706;9.258;2023-06-22T11:12:06;97508.00;;;34.87;48.01
21574;BME280;10948;48.706;9.258;2023-06-22T11:14:31;97503.78;;;34.41;48.68
21574;BME280;10948;48.706;9.258;2023-06-22T11:16:58;97497.44;;;35.28;47.39
21574;BME280;10948;48.706;9.258;2023-06-22T11:19:23;97496.59;;;35.54;46.04
21574;BME280;10948;48.706;9.258;2023-06-22T11:21:48;97510.19;;;35.59;46.39
21574;BME280;10948;48.706;9.258;2023-06-22T11:24:14;97517.13;;;35.02;47.91
21574;BME280;10948;48.706;9.258;2023-06-22T11:26:39;97517.59;;;35.21;46.89
21574;BME280;10948;48.706;9.258;2023-06-22T11:29:04;97509.47;;;34.78;47.27
21574;BME280;10948;48.706;9.258;2023-06-22T11:31:33;97506.50;;;34.41;47.94
21574;BME280;10948;48.706;9.258;2023-06-22T11:33:59;97511.88;;;34.58;47.85
21574;BME280;10948;48.706;9.258;2023-06-22T11:36:25;97501.94;;;34.25;48.51
21574;BME280;10948;48.706;9.258;2023-06-22T11:38:51;97492.69;;;34.76;47.48
21574;BME280;10948;48.706;9.258;2023-06-22T11:41:16;97485.81;;;34.90;46.32
21574;BME280;10948;48.706;9.258;2023-06-22T11:43:42;97480.28;;;35.01;46.92
21574;BME280;10948;48.706;9.258;2023-06-22T11:46:07;97474.59;;;34.81;47.85
21574;BME280;10948;48.706;9.258;2023-06-22T11:48:32;97471.59;;;34.23;48.65
21574;BME280;10948;48.706;9.258;2023-06-22T11:50:58;97480.56;;;33.63;49.88
21574;BME280;10948;48.706;9.258;2023-06-22T11:53:24;97489.91;;;33.55;50.29
21574;BME280;10948;48.706;9.258;2023-06-22T11:55:49;97490.97;;;33.82;49.32
21574;BME280;10948;48.706;9.258;2023-06-22T11:58:15;97492.19;;;33.91;49.42
21574;BME280;10948;48.706;9.258;2023-06-22T12:00:40;97498.00;;;34.16;49.16
21574;BME280;10948;48.706;9.258;2023-06-22T12:03:06;97501.88;;;34.58;46.30
21574;BME280;10948;48.706;9.258;2023-06-22T12:05:32;97499.25;;;34.63;47.37
21574;BME280;10948;48.706;9.258;2023-06-22T12:07:57;97494.78;;;34.19;46.86
21574;BME280;10948;48.706;9.258;2023-06-22T12:10:22;97484.72;;;34.15;46.76
21574;BME280;10948;48.706;9.258;2023-06-22T12:12:48;97470.63;;;34.46;46.15
21574;BME280;10948;48.706;9.258;2023-06-22T12:15:13;97471.94;;;34.43;46.24
21574;BME280;10948;48.706;9.258;2023-06-22T12:17:38;97476.56;;;35.07;46.14
21574;BME280;10948;48.706;9.258;2023-06-22T12:20:04;97469.72;;;34.78;45.24
21574;BME280;10948;48.706;9.258;2023-06-22T12:22:33;97472.72;;;35.03;46.43
21574;BME280;10948;48.706;9.258;2023-06-22T12:24:59;97478.47;;;34.47;46.57
21574;BME280;10948;48.706;9.258;2023-06-22T12:27:24;97473.28;;;34.24;47.02
21574;BME280;10948;48.706;9.258;2023-06-22T12:29:50;97467.81;;;33.58;48.33
21574;BME280;10948;48.706;9.258;2023-06-22T12:32:15;97473.19;;;33.42;48.59
21574;BME280;10948;48.706;9.258;2023-06-22T12:34:43;97479.59;;;33.69;49.14
21574;BME280;10948;48.706;9.258;2023-06-22T12:37:09;97491.75;;;33.38;49.93
21574;BME280;10948;48.706;9.258;2023-06-22T12:39:34;97509.56;;;33.11;50.07
21574;BME280;10948;48.706;9.258;2023-06-22T12:41:59;97515.91;;;33.05;52.26
21574;BME280;10948;48.706;9.258;2023-06-22T12:44:25;97527.44;;;32.89;52.16
21574;BME280;10948;48.706;9.258;2023-06-22T12:46:50;97531.81;;;33.18;52.85
21574;BME280;10948;48.706;9.258;2023-06-22T12:49:15;97534.59;;;33.63;51.39
21574;BME280;10948;48.706;9.258;2023-06-22T12:51:41;97527.50;;;33.45;50.88
21574;BME280;10948;48.706;9.258;2023-06-22T12:54:07;97518.31;;;34.02;50.84